Contact Info

Augusta Flying Club, Inc

KDNL 181753Z AUTO VRB04KT 10SM FEW046 33/21 A2994 RMK AO2 SLP130 T03280211 10333 20244 58014


TAF KDNL 181738Z 1818/1918 31007KT P6SM SCT050 FM190000 VRB04KT P6SM SCT120

info@augustaflyingclub.com

Send us a message